Weather reports worldwide

Advertisment
Concordia Sagittaria, Italy (16107): temperature & dewpoint: 15.01.2018 04:00:00 - 21.01.2018 04:00:00 (CET)Concordia Sagittaria, Italy (16107): wind speed: 15.01.2018 04:00:00 - 21.01.2018 04:00:00 (CET)Concordia Sagittaria, Italy (16107): wind direction: 15.01.2018 04:00:00 - 21.01.2018 04:00:00 (CET)Concordia Sagittaria, Italy (16107): reduced air pressure: 15.01.2018 04:00:00 - 21.01.2018 04:00:00 (CET)Concordia Sagittaria, Italy (16107): precipitation: 15.01.2018 04:00:00 - 21.01.2018 04:00:00 (CET)
Date & Time tt [°C] td [°C] ff [km/h] ff [kn] dd ppp [hPa] rr [mm]
21.01.2018 04:00:00 - - - - - - -
21.01.2018 03:00:00 4,3 2,8 9 5 NNW 1007,8 -
21.01.2018 02:00:00 4,2 2,7 8 4 N 1008,7 -
21.01.2018 01:00:00 3,9 2,4 4 2 N 1008,7 -
21.01.2018 00:00:00 4,5 3,0 8 4 NNE 1010,5 -
20.01.2018 23:00:00 3,8 2,3 0 0 N 1011,4 -
20.01.2018 22:00:00 3,8 2,3 0 0 N 1012,3 -
20.01.2018 21:00:00 3,9 2,4 0 0 N 1012,7 -
20.01.2018 20:00:00 3,8 2,3 0 0 N 1013,5 -
20.01.2018 19:00:00 4,7 3,2 4 2 SSW 1014,6 0,0
20.01.2018 18:00:00 5,3 3,8 0 0 N 1014,9 -
20.01.2018 17:00:00 6,8 3,5 0 0 N 1015,5 -
20.01.2018 16:00:00 8,1 4,3 2 1 SW 1016,0 -
20.01.2018 15:00:00 8,6 4,6 2 1 WNW 1016,2 -
20.01.2018 14:00:00 8,4 4,0 4 2 WSW 1016,7 -
20.01.2018 13:00:00 8,7 5,4 4 2 ESE 1017,3 0,0
20.01.2018 12:00:00 5,5 3,6 9 5 N 1018,7 -
20.01.2018 11:00:00 2,8 1,3 8 4 NNE 1019,6 -
20.01.2018 10:00:00 3,3 1,6 2 1 N 1019,5 -
20.01.2018 09:00:00 3,1 1,6 8 4 N 1018,9 -
20.01.2018 08:00:00 2,4 0,9 5 3 NNW 1018,6 -
20.01.2018 07:00:00 2,0 0,5 13 7 N 1018,4 0,0
20.01.2018 06:00:00 1,9 0,4 4 2 N 1018,3 -
20.01.2018 05:00:00 1,6 0,1 8 4 NNE 1018,0 -
20.01.2018 04:00:00 1,2 -0,3 5 3 NNE 1018,2 -
20.01.2018 03:00:00 1,8 0,3 9 5 N 1018,5 -
20.01.2018 02:00:00 1,9 0,4 5 3 NW 1018,1 -
20.01.2018 01:00:00 2,9 1,4 13 7 N 1017,7 -
20.01.2018 00:00:00 2,9 1,4 5 3 NNE 1017,4 -
19.01.2018 23:00:00 3,0 1,5 4 2 NE 1017,6 -
19.01.2018 22:00:00 3,3 1,8 0 0 N 1016,6 -
19.01.2018 21:00:00 3,2 1,7 4 2 N 1015,8 -
19.01.2018 20:00:00 4,8 2,3 0 0 N 1015,4 -
19.01.2018 19:00:00 5,6 3,1 2 1 NW 1015,0 0,0
19.01.2018 18:00:00 6,3 2,5 2 1 WNW 1014,4 -
19.01.2018 17:00:00 7,7 3,1 4 2 W 1013,7 -
19.01.2018 16:00:00 9,3 3,4 4 2 SSE 1013,4 -
19.01.2018 15:00:00 9,3 2,5 5 3 NNE 1013,0 -
19.01.2018 14:00:00 8,8 2,9 5 3 N 1013,0 -
19.01.2018 13:00:00 6,5 3,6 0 0 N 1013,2 0,0
19.01.2018 12:00:00 4,9 2,9 5 3 NNW 1013,4 -
19.01.2018 11:00:00 3,2 1,4 0 0 N 1013,6 -
19.01.2018 10:00:00 1,4 -0,1 5 3 NNW 1013,4 -
19.01.2018 09:00:00 0,0 -1,5 0 0 N 1013,3 -
19.01.2018 08:00:00 -0,1 -1,7 4 2 NNW 1013,5 -
19.01.2018 07:00:00 0,6 -1,2 4 2 WNW 1013,5 0,0
19.01.2018 06:00:00 0,9 -0,7 5 3 NNW 1013,4 -
19.01.2018 05:00:00 1,2 -0,9 2 1 NNW 1013,7 -
19.01.2018 04:00:00 1,9 0,1 2 1 N 1013,5 -
19.01.2018 03:00:00 1,7 0,1 5 3 NNW 1014,4 -
19.01.2018 02:00:00 1,2 -0,3 4 2 N 1014,4 -
19.01.2018 01:00:00 0,6 -1,2 5 3 N 1014,7 0,0
19.01.2018 00:00:00 1,0 -0,5 4 2 NW 1015,8 -
18.01.2018 23:00:00 1,3 -0,7 5 3 NNW 1016,2 -
18.01.2018 22:00:00 2,0 -0,8 5 3 NNW 1016,2 -
18.01.2018 21:00:00 2,9 -0,4 8 4 WNW 1016,5 -
18.01.2018 20:00:00 2,9 -0,6 4 2 NNW 1017,0 -
18.01.2018 19:00:00 3,6 -1,0 5 3 NW 1016,9 0,0
18.01.2018 18:00:00 4,3 -1,2 4 2 N 1017,3 -
18.01.2018 17:00:00 6,3 -1,2 8 4 N 1017,3 -
18.01.2018 16:00:00 8,3 0,2 4 2 NNE 1017,2 -
18.01.2018 15:00:00 8,4 -1,5 4 2 NNW 1017,8 -
18.01.2018 14:00:00 9,1 0,2 5 3 SW 1017,6 -
18.01.2018 13:00:00 8,0 0,9 2 1 SE 1018,7 0,0
18.01.2018 12:00:00 7,0 1,8 8 4 ESE 1019,4 -
18.01.2018 11:00:00 4,0 -0,3 2 1 N 1020,5 -
18.01.2018 10:00:00 2,6 0,6 8 4 E 1020,9 -
18.01.2018 09:00:00 -0,5 -2,0 8 4 N 1020,5 -
18.01.2018 08:00:00 -2,2 -3,6 2 1 NE 1019,8 -
18.01.2018 07:00:00 -2,6 -4,0 0 0 N 1019,5 0,0
18.01.2018 06:00:00 -2,0 -3,4 0 0 N 1019,3 -
18.01.2018 05:00:00 -1,7 -3,1 2 1 E 1019,0 -
18.01.2018 04:00:00 -0,6 -3,8 2 1 SE 1018,6 -
18.01.2018 03:00:00 -0,2 -4,5 4 2 N 1018,6 -
18.01.2018 02:00:00 1,3 -4,8 2 1 SW 1018,3 -
18.01.2018 01:00:00 2,7 -4,8 5 3 W 1017,7 0,0
18.01.2018 00:00:00 3,5 -4,8 5 3 SW 1017,0 -
17.01.2018 23:00:00 4,3 -5,6 5 3 WSW 1016,4 -
17.01.2018 22:00:00 4,6 -5,3 9 5 W 1015,7 -
17.01.2018 21:00:00 6,1 -4,5 16 9 SW 1014,7 -
17.01.2018 20:00:00 6,2 -5,6 8 4 WSW 1013,8 -
17.01.2018 19:00:00 8,4 -6,3 28 15 W 1012,0 0,0
17.01.2018 18:00:00 7,6 -4,6 29 16 WNW 1010,6 -
17.01.2018 17:00:00 6,4 3,3 0 0 N 1009,0 -
17.01.2018 16:00:00 8,8 5,1 5 3 NNE 1007,0 -
17.01.2018 15:00:00 8,7 4,5 16 9 SW 1005,0 -
17.01.2018 14:00:00 8,1 5,5 8 4 W 1004,3 -
17.01.2018 13:00:00 6,4 4,4 15 8 WSW 1004,5 0,0
17.01.2018 12:00:00 6,6 4,9 11 6 SW 1003,1 -
17.01.2018 11:00:00 5,6 4,1 8 4 W 1003,2 -
17.01.2018 10:00:00 3,3 1,8 0 0 N 1003,9 -
17.01.2018 09:00:00 2,7 1,2 5 3 W 1002,7 -
17.01.2018 08:00:00 2,6 1,1 4 2 WNW 1001,7 -
17.01.2018 07:00:00 2,9 1,4 4 2 SSW 1002,1 0,0
17.01.2018 06:00:00 3,8 2,3 4 2 WSW 1003,0 -
17.01.2018 05:00:00 3,8 2,3 4 2 NNW 1003,4 -
17.01.2018 04:00:00 3,9 2,4 2 1 NNW 1004,4 -
17.01.2018 03:00:00 3,8 2,3 5 3 NNW 1005,1 -
17.01.2018 02:00:00 3,9 2,4 4 2 N 1006,4 -
17.01.2018 01:00:00 3,9 2,4 5 3 NNW 1007,4 0,0
17.01.2018 00:00:00 4,0 2,5 0 0 N 1008,7 -
16.01.2018 23:00:00 3,9 2,4 4 2 N 1009,3 -
16.01.2018 22:00:00 3,9 2,4 0 0 N 1010,0 -
16.01.2018 21:00:00 4,1 2,6 0 0 N 1010,4 -
16.01.2018 20:00:00 4,3 2,8 0 0 N 1010,8 -
16.01.2018 19:00:00 4,3 2,8 0 0 N 1010,8 0,0
16.01.2018 18:00:00 4,4 2,9 0 0 N 1011,3 -
16.01.2018 17:00:00 4,7 3,2 0 0 N 1011,3 -
16.01.2018 16:00:00 4,8 3,3 0 0 N 1012,0 -
16.01.2018 15:00:00 4,9 3,4 2 1 ESE 1012,3 -
16.01.2018 14:00:00 5,0 3,5 0 0 N 1012,9 -
16.01.2018 13:00:00 4,8 3,3 2 1 NW 1014,0 0,0
16.01.2018 12:00:00 4,6 3,1 2 1 SW 1014,9 -
16.01.2018 11:00:00 4,2 2,7 4 2 N 1016,0 -
16.01.2018 10:00:00 3,6 2,1 5 3 NW 1016,0 -
16.01.2018 09:00:00 3,3 1,8 5 3 W 1016,6 -
16.01.2018 08:00:00 3,1 1,6 2 1 W 1016,7 -
16.01.2018 07:00:00 3,0 1,5 0 0 N 1016,9 0,0
16.01.2018 06:00:00 2,9 1,4 4 2 N 1017,5 -
16.01.2018 05:00:00 3,0 1,5 8 4 N 1018,3 -
16.01.2018 04:00:00 2,9 1,4 8 4 N 1019,4 -
16.01.2018 03:00:00 3,0 1,5 5 3 NNW 1020,7 -
16.01.2018 02:00:00 3,6 2,1 8 4 WNW 1021,8 -
16.01.2018 01:00:00 4,1 2,6 0 0 N 1022,5 0,0
16.01.2018 00:00:00 4,0 2,5 4 2 N 1023,6 -
15.01.2018 23:00:00 4,1 1,9 0 0 N 1024,3 -
15.01.2018 22:00:00 4,3 1,8 0 0 N 1024,8 -
15.01.2018 21:00:00 4,5 2,0 0 0 N 1024,9 -
15.01.2018 20:00:00 5,0 2,1 4 2 WSW 1025,1 -
15.01.2018 19:00:00 4,8 1,4 4 2 SW 1025,4 0,0
15.01.2018 18:00:00 5,1 1,3 2 1 W 1026,2 -
15.01.2018 17:00:00 5,6 -0,3 0 0 N 1026,5 -
15.01.2018 16:00:00 8,8 0,7 0 0 N 1026,4 -
15.01.2018 15:00:00 7,9 0,3 5 3 N 1026,7 -
15.01.2018 14:00:00 7,6 0,5 4 2 N 1027,3 -
15.01.2018 13:00:00 7,1 0,2 2 1 NE 1028,2 0,0
15.01.2018 12:00:00 6,4 0,9 9 5 N 1029,2 -
15.01.2018 11:00:00 5,3 0,6 9 5 N 1029,8 -
15.01.2018 10:00:00 3,7 0,2 9 5 N 1029,6 -
15.01.2018 09:00:00 1,9 0,1 11 6 N 1029,5 -
15.01.2018 08:00:00 1,3 -1,0 5 3 N 1029,3 -
15.01.2018 07:00:00 1,9 -0,7 5 3 NNW 1028,9 0,0
15.01.2018 06:00:00 2,4 -0,4 5 3 NNW 1028,6 -
15.01.2018 05:00:00 2,6 0,3 8 4 N 1028,6 -
15.01.2018 04:00:00 3,1 1,0 5 3 N 1028,8 -

tt = temperature
td = dewpoint
ff = wind speed
dd = wind direction
ppp = reduced air pressure
rr = precipitation

Next stations